Time;durP1;ratioP1;P1;durP2;ratioP2;P2;SDS_P1;SDS_P2;PMS_P1;PMS_P2;Temp;Humidity;BMP_temperature;BMP_pressure;BME280_temperature;BME280_humidity;BME280_pressure;Samples;Min_cycle;Max_cycle;Signal;HPM_P1;HPM_P2
2023/03/10 00:02:25;;;;;;;;;;;8.60;62.40;;;;;;4976104;28;19922;-92
2023/03/10 00:04:51;;;;;;;;;;;8.60;62.30;;;;;;4993854;28;19964;-92
2023/03/10 00:07:17;;;;;;;;;;;8.50;62.20;;;;;;4976171;28;19910;-92
2023/03/10 00:09:43;;;;;;;;;;;8.60;62.40;;;;;;4976442;28;19925;-90
2023/03/10 00:12:08;;;;;;;;;;;8.60;62.40;;;;;;4993673;28;19910;-90
2023/03/10 00:14:34;;;;;;;;;;;8.60;62.60;;;;;;4976276;28;19910;-88
2023/03/10 00:17:00;;;;;;;;;;;8.60;62.40;;;;;;4976014;28;19924;-90
2023/03/10 00:19:26;;;;;;;;;;;8.60;62.20;;;;;;4975776;28;20052;-91
2023/03/10 00:21:52;;;;;;;;;;;8.60;62.40;;;;;;4976266;28;19909;-91
2023/03/10 00:24:17;;;;;;;;;;;8.60;62.50;;;;;;4994093;28;20416;-90
2023/03/10 00:26:44;;;;;;;;;;;8.60;62.50;;;;;;4993567;28;20484;-90
2023/03/10 00:29:10;;;;;;;;;;;8.70;62.60;;;;;;4976023;28;19918;-91
2023/03/10 00:31:36;;;;;;;;;;;8.70;62.80;;;;;;4975485;28;20004;-89
2023/03/10 00:34:02;;;;;;;;;;;8.70;62.70;;;;;;4976037;28;20005;-90
2023/03/10 00:36:28;;;;;;;;;;;8.80;62.70;;;;;;4975546;28;19918;-89
2023/03/10 00:38:54;;;;;;;;;;;8.80;62.70;;;;;;4975876;28;19992;-90
2023/03/10 00:41:29;;;;;;;;;;;8.80;62.60;;;;;;4976247;28;19941;-90
2023/03/10 00:43:57;;;;;;;;;;;8.90;62.60;;;;;;4993267;28;20254;-92
2023/03/10 00:46:23;;;;;;;;;;;8.90;62.50;;;;;;4993230;28;19920;-92
2023/03/10 00:48:49;;;;;;;;;;;8.90;62.70;;;;;;4992617;28;20375;-89
2023/03/10 00:51:15;;;;;;;;;;;8.80;62.60;;;;;;4992897;28;19910;-91
2023/03/10 00:53:41;;;;;;;;;;;8.90;62.80;;;;;;4993692;28;20057;-91
2023/03/10 00:56:10;;;;;;;;;;;8.90;62.80;;;;;;4975130;28;19920;-90
2023/03/10 00:58:35;;;;;;;;;;;8.90;62.70;;;;;;4975025;28;19918;-90
2023/03/10 01:01:02;;;;;;;;;;;9.00;62.80;;;;;;4992858;28;20046;-89
2023/03/10 01:03:27;;;;;;;;;;;9.00;62.70;;;;;;4993005;28;19922;-89
2023/03/10 01:05:53;;;;;;;;;;;9.00;62.50;;;;;;4975581;28;19914;-90
2023/03/10 01:08:19;;;;;;;;;;;9.00;62.50;;;;;;4975278;28;19925;-89
2023/03/10 01:10:45;;;;;;;;;;;9.00;62.50;;;;;;4992135;28;19910;-89
2023/03/10 01:13:15;;;;;;;;;;;9.00;62.40;;;;;;4992577;28;20380;-91
2023/03/10 01:15:49;;;;;;;;;;;8.90;62.40;;;;;;4992624;28;19972;-90
2023/03/10 01:18:15;;;;;;;;;;;8.90;62.30;;;;;;4992159;28;19930;-92
2023/03/10 01:20:41;;;;;;;;;;;8.90;62.40;;;;;;4974896;28;19917;-91
2023/03/10 01:23:11;;;;;;;;;;;8.90;62.40;;;;;;4993468;28;19918;-88
2023/03/10 01:25:37;;;;;;;;;;;8.90;62.40;;;;;;4992388;28;19910;-89
2023/03/10 01:28:02;;;;;;;;;;;8.90;62.70;;;;;;4975227;28;19929;-89
2023/03/10 01:30:29;;;;;;;;;;;8.90;62.70;;;;;;4974709;28;20013;-90
2023/03/10 01:32:55;;;;;;;;;;;9.00;62.80;;;;;;4992703;28;19922;-90
2023/03/10 01:35:20;;;;;;;;;;;9.00;62.90;;;;;;4992553;28;20292;-90
2023/03/10 01:37:46;;;;;;;;;;;9.00;62.60;;;;;;4992400;28;19946;-91
2023/03/10 01:40:15;;;;;;;;;;;8.90;62.60;;;;;;4992761;28;20448;-90
2023/03/10 01:42:40;;;;;;;;;;;9.00;62.60;;;;;;4992155;28;19957;-90
2023/03/10 01:45:06;;;;;;;;;;;9.00;62.80;;;;;;4992306;28;20340;-90
2023/03/10 01:47:32;;;;;;;;;;;9.00;63.00;;;;;;4974512;28;19917;-89
2023/03/10 01:49:58;;;;;;;;;;;9.00;63.00;;;;;;4991916;28;19914;-90
2023/03/10 01:52:25;;;;;;;;;;;9.10;63.00;;;;;;4974167;28;19945;-91
2023/03/10 01:54:55;;;;;;;;;;;9.10;63.10;;;;;;4992119;28;20444;-92
2023/03/10 01:57:29;;;;;;;;;;;9.10;63.10;;;;;;4974577;28;20001;-91
2023/03/10 01:59:55;;;;;;;;;;;9.20;63.20;;;;;;4974006;28;20013;-88
2023/03/10 02:02:21;;;;;;;;;;;9.20;63.10;;;;;;4991114;28;19922;-91
2023/03/10 02:04:47;;;;;;;;;;;9.30;63.10;;;;;;4991734;28;20364;-89
2023/03/10 02:07:15;;;;;;;;;;;9.30;63.20;;;;;;4991691;28;19957;-89
2023/03/10 02:09:45;;;;;;;;;;;9.40;63.00;;;;;;4992327;28;20008;-91
2023/03/10 02:12:11;;;;;;;;;;;9.40;62.80;;;;;;4991733;28;19909;-90
2023/03/10 02:14:37;;;;;;;;;;;9.40;62.70;;;;;;4991286;28;19914;-88
2023/03/10 02:17:04;;;;;;;;;;;9.40;62.50;;;;;;4991223;28;20369;-90
2023/03/10 02:19:53;;;;;;;;;;;9.40;62.30;;;;;;4991340;28;20284;-90
2023/03/10 02:22:19;;;;;;;;;;;9.40;62.50;;;;;;4954669;28;19913;-88
2023/03/10 02:25:00;;;;;;;;;;;9.40;62.40;;;;;;4974293;28;19997;-89
2023/03/10 02:27:26;;;;;;;;;;;9.40;62.50;;;;;;4991008;28;19980;-88
2023/03/10 02:29:58;;;;;;;;;;;9.40;62.50;;;;;;4973685;28;19914;-88
2023/03/10 02:32:24;;;;;;;;;;;9.40;62.60;;;;;;4991154;28;20250;-89
2023/03/10 02:34:50;;;;;;;;;;;9.40;62.80;;;;;;4973533;28;20011;-89
2023/03/10 02:37:20;;;;;;;;;;;9.40;63.00;;;;;;4991047;28;20396;-88
2023/03/10 02:39:45;;;;;;;;;;;9.50;62.90;;;;;;4990981;28;20001;-91
2023/03/10 02:42:11;;;;;;;;;;;9.50;62.90;;;;;;4973657;28;20064;-89
2023/03/10 02:44:37;;;;;;;;;;;9.50;62.70;;;;;;4973644;28;20376;-88
2023/03/10 02:47:02;;;;;;;;;;;9.60;62.80;;;;;;4990854;28;20250;-90
2023/03/10 02:49:28;;;;;;;;;;;9.60;62.70;;;;;;4991217;28;19914;-88
2023/03/10 02:51:54;;;;;;;;;;;9.60;62.70;;;;;;4990760;28;19949;-91
2023/03/10 02:54:20;;;;;;;;;;;9.70;62.90;;;;;;4973526;28;19914;-90
2023/03/10 02:56:45;;;;;;;;;;;9.70;63.00;;;;;;4990804;28;20012;-89
2023/03/10 02:59:11;;;;;;;;;;;9.70;63.00;;;;;;4991370;28;19914;-91
2023/03/10 03:01:37;;;;;;;;;;;9.80;63.20;;;;;;4973541;28;19918;-91
2023/03/10 03:04:02;;;;;;;;;;;9.80;63.40;;;;;;4973349;28;19926;-89
2023/03/10 03:06:28;;;;;;;;;;;10.00;63.60;;;;;;4973122;28;19910;-88
2023/03/10 03:08:54;;;;;;;;;;;10.10;63.60;;;;;;4973706;28;19917;-90
2023/03/10 03:11:20;;;;;;;;;;;10.20;63.90;;;;;;4990361;28;20029;-90
2023/03/10 03:13:45;;;;;;;;;;;10.30;64.30;;;;;;4990959;28;20018;-90
2023/03/10 03:16:11;;;;;;;;;;;10.50;64.80;;;;;;4990528;28;19957;-89
2023/03/10 03:18:36;;;;;;;;;;;10.70;65.90;;;;;;4990632;28;20376;-89
2023/03/10 03:21:02;;;;;;;;;;;11.00;66.90;;;;;;4973174;28;20004;-89
2023/03/10 03:23:28;;;;;;;;;;;11.30;67.30;;;;;;4990683;28;19934;-88
2023/03/10 03:25:53;;;;;;;;;;;11.70;67.60;;;;;;4990942;28;19910;-89
2023/03/10 03:28:19;;;;;;;;;;;12.00;67.30;;;;;;4990494;28;19918;-89
2023/03/10 03:30:44;;;;;;;;;;;12.20;67.00;;;;;;4990442;28;19910;-88
2023/03/10 03:33:10;;;;;;;;;;;12.40;66.90;;;;;;4990497;28;19918;-87
2023/03/10 03:35:36;;;;;;;;;;;12.60;66.70;;;;;;4990087;28;19979;-89
2023/03/10 03:38:02;;;;;;;;;;;12.80;66.30;;;;;;4990174;28;20459;-89
2023/03/10 03:40:29;;;;;;;;;;;12.90;66.10;;;;;;4990630;28;19914;-88
2023/03/10 03:42:54;;;;;;;;;;;13.10;65.70;;;;;;4990706;28;19920;-88
2023/03/10 03:45:21;;;;;;;;;;;13.20;65.50;;;;;;4990344;28;19916;-89
2023/03/10 03:47:48;;;;;;;;;;;13.30;65.40;;;;;;4972817;28;20284;-88
2023/03/10 03:50:13;;;;;;;;;;;13.40;65.10;;;;;;4990329;28;19920;-88
2023/03/10 03:52:40;;;;;;;;;;;13.40;65.20;;;;;;4990131;28;19922;-88
2023/03/10 03:55:06;;;;;;;;;;;13.50;64.70;;;;;;4989880;28;20277;-88
2023/03/10 03:57:32;;;;;;;;;;;13.50;64.60;;;;;;4972582;28;20505;-88
2023/03/10 03:59:57;;;;;;;;;;;13.60;64.50;;;;;;4990311;28;19957;-89
2023/03/10 04:02:23;;;;;;;;;;;13.60;64.30;;;;;;4989759;28;19922;-87
2023/03/10 04:04:48;;;;;;;;;;;13.60;64.20;;;;;;4990324;28;19921;-87
2023/03/10 04:07:15;;;;;;;;;;;13.60;64.10;;;;;;4990178;28;20309;-89
2023/03/10 04:09:41;;;;;;;;;;;13.60;64.00;;;;;;4990206;28;19993;-89
2023/03/10 04:12:07;;;;;;;;;;;13.60;63.80;;;;;;4990214;28;19910;-88
2023/03/10 04:14:33;;;;;;;;;;;13.60;63.90;;;;;;4990106;28;19917;-87
2023/03/10 04:16:58;;;;;;;;;;;13.60;63.80;;;;;;4973138;28;19941;-89
2023/03/10 04:19:23;;;;;;;;;;;13.50;63.30;;;;;;4990343;28;19918;-89
2023/03/10 04:21:49;;;;;;;;;;;13.50;62.40;;;;;;4991231;28;19913;-89
2023/03/10 04:24:14;;;;;;;;;;;13.30;62.00;;;;;;4993328;28;19929;-88
2023/03/10 04:26:40;;;;;;;;;;;13.20;62.00;;;;;;4993271;28;19918;-89
2023/03/10 04:29:06;;;;;;;;;;;13.10;62.00;;;;;;4993670;28;19924;-87
2023/03/10 04:31:31;;;;;;;;;;;13.00;61.90;;;;;;4993498;28;19993;-89
2023/03/10 04:33:57;;;;;;;;;;;12.90;61.60;;;;;;4993430;28;20365;-89
2023/03/10 04:36:22;;;;;;;;;;;12.80;61.70;;;;;;4993154;28;19928;-89
2023/03/10 04:38:48;;;;;;;;;;;12.70;61.50;;;;;;4993522;28;19980;-89
2023/03/10 04:41:13;;;;;;;;;;;12.60;61.40;;;;;;4993217;28;19918;-89
2023/03/10 04:43:39;;;;;;;;;;;12.50;61.40;;;;;;4993221;28;19921;-89
2023/03/10 04:46:04;;;;;;;;;;;12.40;61.50;;;;;;4993439;28;19917;-88
2023/03/10 04:48:30;;;;;;;;;;;12.30;61.60;;;;;;4975618;28;20016;-88
2023/03/10 04:50:56;;;;;;;;;;;12.30;61.40;;;;;;4992986;28;19968;-90
2023/03/10 04:53:22;;;;;;;;;;;12.20;61.40;;;;;;4993304;28;20001;-89
2023/03/10 04:55:50;;;;;;;;;;;12.10;61.40;;;;;;4993047;28;20020;-89
2023/03/10 04:58:17;;;;;;;;;;;12.00;61.30;;;;;;4992992;28;19921;-88
2023/03/10 05:00:42;;;;;;;;;;;11.90;61.20;;;;;;4993142;28;19937;-90
2023/03/10 05:03:08;;;;;;;;;;;11.80;61.30;;;;;;4976441;28;19922;-91
2023/03/10 05:05:33;;;;;;;;;;;11.60;61.60;;;;;;4975712;28;19910;-88
2023/03/10 05:07:59;;;;;;;;;;;11.50;61.80;;;;;;4992818;28;19922;-89
2023/03/10 05:10:25;;;;;;;;;;;11.40;61.70;;;;;;4993467;28;19910;-89
2023/03/10 05:12:51;;;;;;;;;;;11.30;61.70;;;;;;4975270;28;20016;-90
2023/03/10 05:15:17;;;;;;;;;;;11.10;61.70;;;;;;4992522;28;20325;-90
2023/03/10 05:17:42;;;;;;;;;;;11.00;61.60;;;;;;4992731;28;19918;-91
2023/03/10 05:20:08;;;;;;;;;;;10.80;61.70;;;;;;4975163;28;19933;-90
2023/03/10 05:22:34;;;;;;;;;;;10.80;61.70;;;;;;4974543;28;19960;-91
2023/03/10 05:25:00;;;;;;;;;;;10.70;61.80;;;;;;4974786;28;20345;-90
2023/03/10 05:27:26;;;;;;;;;;;10.60;61.80;;;;;;4974850;28;19925;-89
2023/03/10 05:29:51;;;;;;;;;;;10.60;62.10;;;;;;4992196;28;19977;-90
2023/03/10 05:32:17;;;;;;;;;;;10.60;62.20;;;;;;4974217;28;19910;-88
2023/03/10 05:34:42;;;;;;;;;;;10.60;62.20;;;;;;4973834;28;19968;-90
2023/03/10 05:37:08;;;;;;;;;;;10.50;62.00;;;;;;4974508;28;19917;-89
2023/03/10 05:39:33;;;;;;;;;;;10.50;62.10;;;;;;4991607;28;19929;-91
2023/03/10 05:41:59;;;;;;;;;;;10.40;62.10;;;;;;4992076;28;19910;-87
2023/03/10 05:44:24;;;;;;;;;;;10.40;62.10;;;;;;4991756;28;19917;-89
2023/03/10 05:46:52;;;;;;;;;;;10.40;62.30;;;;;;4991878;28;20410;-89
2023/03/10 05:49:17;;;;;;;;;;;10.30;62.20;;;;;;4992297;28;20281;-91
2023/03/10 05:51:45;;;;;;;;;;;10.30;62.10;;;;;;4991238;28;21390;-90
2023/03/10 05:54:10;;;;;;;;;;;10.30;62.10;;;;;;4992379;28;19920;-90
2023/03/10 05:56:36;;;;;;;;;;;10.30;62.20;;;;;;4991655;28;19926;-90
2023/03/10 05:59:02;;;;;;;;;;;10.20;62.30;;;;;;4991740;28;19918;-90
2023/03/10 06:01:27;;;;;;;;;;;10.30;62.40;;;;;;4974032;28;20328;-92
2023/03/10 06:03:53;;;;;;;;;;;10.20;62.30;;;;;;4974084;28;19925;-88
2023/03/10 06:06:18;;;;;;;;;;;10.20;62.20;;;;;;4974048;28;19925;-89
2023/03/10 06:08:44;;;;;;;;;;;10.20;62.20;;;;;;4992065;28;19914;-89
2023/03/10 06:11:10;;;;;;;;;;;10.20;62.20;;;;;;4991629;28;19914;-88
2023/03/10 06:13:36;;;;;;;;;;;10.10;62.20;;;;;;4991687;28;20026;-87
2023/03/10 06:16:02;;;;;;;;;;;10.10;62.10;;;;;;4974209;28;19926;-87
2023/03/10 06:18:28;;;;;;;;;;;10.00;62.20;;;;;;4991387;28;19914;-88
2023/03/10 06:20:54;;;;;;;;;;;10.00;62.40;;;;;;4973657;28;20446;-91
2023/03/10 06:23:20;;;;;;;;;;;10.00;62.50;;;;;;4991240;28;19953;-90
2023/03/10 06:25:56;;;;;;;;;;;10.10;62.60;;;;;;4991673;28;20387;-88
2023/03/10 06:28:21;;;;;;;;;;;10.10;62.60;;;;;;4973479;28;20402;-89
2023/03/10 06:30:52;;;;;;;;;;;10.10;62.40;;;;;;4973882;28;19973;-89
2023/03/10 06:33:18;;;;;;;;;;;10.10;62.20;;;;;;4991522;28;19913;-90
2023/03/10 06:35:44;;;;;;;;;;;10.10;62.20;;;;;;4991296;28;19929;-89
2023/03/10 06:38:09;;;;;;;;;;;10.00;62.00;;;;;;4973648;28;19945;-88
2023/03/10 06:40:35;;;;;;;;;;;10.00;62.00;;;;;;4991336;28;19921;-88
2023/03/10 06:43:01;;;;;;;;;;;9.90;62.20;;;;;;4991078;28;19957;-88
2023/03/10 06:45:27;;;;;;;;;;;9.80;62.10;;;;;;4990191;28;20546;-91
2023/03/10 06:47:52;;;;;;;;;;;9.80;62.20;;;;;;4990696;28;19921;-90
2023/03/10 06:50:18;;;;;;;;;;;9.80;62.20;;;;;;4973658;28;19920;-88
2023/03/10 06:52:44;;;;;;;;;;;9.80;61.90;;;;;;4991089;28;19918;-90
2023/03/10 06:55:12;;;;;;;;;;;9.70;62.00;;;;;;4990688;28;19914;-88
2023/03/10 06:57:38;;;;;;;;;;;9.70;61.90;;;;;;4972984;28;20280;-92
2023/03/10 07:00:04;;;;;;;;;;;9.60;62.20;;;;;;4990364;28;20566;-89
2023/03/10 07:02:29;;;;;;;;;;;9.60;62.40;;;;;;4990420;28;19918;-92
2023/03/10 07:04:55;;;;;;;;;;;9.60;62.60;;;;;;4973094;28;19914;-88
2023/03/10 07:07:21;;;;;;;;;;;9.70;62.60;;;;;;5004159;28;19921;-91
2023/03/10 07:09:46;;;;;;;;;;;9.70;62.60;;;;;;4992838;28;19975;-89
2023/03/10 07:12:12;;;;;;;;;;;9.70;62.50;;;;;;4993681;28;19917;-90
2023/03/10 07:14:38;;;;;;;;;;;9.70;62.40;;;;;;4990866;28;19922;-90
2023/03/10 07:17:04;;;;;;;;;;;9.80;62.40;;;;;;5017100;28;19967;-89
2023/03/10 07:19:29;;;;;;;;;;;9.80;62.30;;;;;;5028237;28;19995;-90
2023/03/10 07:21:55;;;;;;;;;;;9.80;62.40;;;;;;5028726;28;19909;-91
2023/03/10 07:24:21;;;;;;;;;;;9.80;62.20;;;;;;5029467;28;19917;-88
2023/03/10 07:26:46;;;;;;;;;;;9.80;62.30;;;;;;5029831;28;19928;-91
2023/03/10 07:29:14;;;;;;;;;;;9.80;62.40;;;;;;4990815;28;20000;-90
2023/03/10 07:31:39;;;;;;;;;;;9.80;62.40;;;;;;5010125;28;19913;-90
2023/03/10 07:34:05;;;;;;;;;;;9.80;62.50;;;;;;5008484;28;19925;-90
2023/03/10 07:36:31;;;;;;;;;;;9.80;62.30;;;;;;4992390;28;20360;-89
2023/03/10 07:38:57;;;;;;;;;;;9.80;62.50;;;;;;5006399;28;19959;-89
2023/03/10 07:41:22;;;;;;;;;;;9.90;62.40;;;;;;4991744;28;19918;-91
2023/03/10 07:43:50;;;;;;;;;;;9.90;62.40;;;;;;4992072;28;20340;-90
2023/03/10 07:46:16;;;;;;;;;;;9.90;62.60;;;;;;5009395;28;19913;-90
2023/03/10 07:48:42;;;;;;;;;;;10.00;62.60;;;;;;5006517;28;19913;-88
2023/03/10 07:51:07;;;;;;;;;;;10.00;62.50;;;;;;5009657;28;19920;-90
2023/03/10 07:53:33;;;;;;;;;;;10.00;62.50;;;;;;4991932;28;19918;-89
2023/03/10 07:55:59;;;;;;;;;;;10.10;62.60;;;;;;5009476;28;19969;-88
2023/03/10 07:58:24;;;;;;;;;;;10.10;62.60;;;;;;5009857;28;20337;-89
2023/03/10 08:00:54;;;;;;;;;;;10.10;62.40;;;;;;5013505;28;19914;-90
2023/03/10 08:03:19;;;;;;;;;;;10.20;62.80;;;;;;5024143;28;20310;-89
2023/03/10 08:05:47;;;;;;;;;;;10.20;63.00;;;;;;5033481;28;19960;-89
2023/03/10 08:08:12;;;;;;;;;;;10.30;63.00;;;;;;5023511;28;19949;-89
2023/03/10 08:10:38;;;;;;;;;;;10.30;62.70;;;;;;5013495;28;19952;-90
2023/03/10 08:13:04;;;;;;;;;;;10.30;62.70;;;;;;4995644;28;19914;-88
2023/03/10 08:15:29;;;;;;;;;;;10.30;63.00;;;;;;4995392;28;19928;-90
2023/03/10 08:17:55;;;;;;;;;;;10.40;63.10;;;;;;5010627;28;19917;-91
2023/03/10 08:20:21;;;;;;;;;;;10.50;62.90;;;;;;5013424;28;20288;-88
2023/03/10 08:22:47;;;;;;;;;;;10.60;63.00;;;;;;5011854;28;20279;-89
2023/03/10 08:25:13;;;;;;;;;;;10.70;63.00;;;;;;5012078;28;20415;-89
2023/03/10 08:27:40;;;;;;;;;;;10.70;62.60;;;;;;4994905;28;19956;-91
2023/03/10 08:30:06;;;;;;;;;;;10.70;62.50;;;;;;4994356;28;19918;-89
2023/03/10 08:32:32;;;;;;;;;;;10.80;62.60;;;;;;4995419;28;19917;-91
2023/03/10 08:34:59;;;;;;;;;;;10.80;63.00;;;;;;4995087;28;20269;-89
2023/03/10 08:37:25;;;;;;;;;;;10.90;62.70;;;;;;4995259;28;20319;-89
2023/03/10 08:39:55;;;;;;;;;;;10.80;62.60;;;;;;4995226;28;19973;-89
2023/03/10 08:42:21;;;;;;;;;;;10.90;62.50;;;;;;4994907;28;19913;-93
2023/03/10 08:44:46;;;;;;;;;;;10.80;62.40;;;;;;5012970;28;20257;-89
2023/03/10 08:47:12;;;;;;;;;;;10.80;62.70;;;;;;5013076;28;20004;-88
2023/03/10 08:49:38;;;;;;;;;;;10.80;63.10;;;;;;4995218;28;19920;-92
2023/03/10 08:52:03;;;;;;;;;;;10.90;63.20;;;;;;5012582;28;19968;-89
2023/03/10 08:54:29;;;;;;;;;;;11.00;63.50;;;;;;4994780;28;19913;-90
2023/03/10 08:56:55;;;;;;;;;;;11.10;63.50;;;;;;5012689;28;20455;-88
2023/03/10 08:59:20;;;;;;;;;;;11.20;63.20;;;;;;5012566;28;19913;-88
2023/03/10 09:01:46;;;;;;;;;;;11.20;63.20;;;;;;5012590;28;19920;-91
2023/03/10 09:04:12;;;;;;;;;;;11.30;63.40;;;;;;5012182;28;19918;-89
2023/03/10 09:06:37;;;;;;;;;;;11.50;63.40;;;;;;4994765;28;19918;-90
2023/03/10 09:09:04;;;;;;;;;;;11.50;63.30;;;;;;4993988;28;19917;-90
2023/03/10 09:11:31;;;;;;;;;;;11.60;63.00;;;;;;5011960;28;20292;-90
2023/03/10 09:13:57;;;;;;;;;;;11.70;63.10;;;;;;4994820;28;20323;-91
2023/03/10 09:16:23;;;;;;;;;;;11.70;62.60;;;;;;4994327;28;19926;-89
2023/03/10 09:18:49;;;;;;;;;;;11.70;62.40;;;;;;5012496;28;19956;-92
2023/03/10 09:21:16;;;;;;;;;;;11.60;62.50;;;;;;4994362;28;20056;-91
2023/03/10 09:23:42;;;;;;;;;;;11.60;62.40;;;;;;4994362;28;19913;-91
2023/03/10 09:26:09;;;;;;;;;;;11.50;62.40;;;;;;5010725;28;19917;-89
2023/03/10 09:28:34;;;;;;;;;;;11.50;62.60;;;;;;5012321;28;19913;-91
2023/03/10 09:31:00;;;;;;;;;;;11.50;62.60;;;;;;5010778;28;20139;-91
2023/03/10 09:33:25;;;;;;;;;;;11.50;62.70;;;;;;5011975;28;19920;-89
2023/03/10 09:35:51;;;;;;;;;;;11.50;62.80;;;;;;4977863;28;19926;-91
2023/03/10 09:38:17;;;;;;;;;;;11.60;63.00;;;;;;4991878;28;19917;-92
2023/03/10 09:40:52;;;;;;;;;;;11.60;63.10;;;;;;5002238;28;20851;-91
2023/03/10 09:43:19;;;;;;;;;;;11.60;62.80;;;;;;4994664;28;20312;-91
2023/03/10 09:45:48;;;;;;;;;;;11.60;62.50;;;;;;4992349;28;19985;-89
2023/03/10 09:48:26;;;;;;;;;;;11.60;62.60;;;;;;4974442;28;20017;-88
2023/03/10 09:50:53;;;;;;;;;;;11.50;62.20;;;;;;4992272;28;19913;-89
2023/03/10 09:53:37;;;;;;;;;;;11.50;62.50;;;;;;4979559;28;19917;-87
2023/03/10 09:56:08;;;;;;;;;;;11.50;62.20;;;;;;4993816;28;19921;-88
2023/03/10 09:58:41;;;;;;;;;;;11.50;62.40;;;;;;5011663;28;19917;-90
2023/03/10 10:01:14;;;;;;;;;;;11.50;62.30;;;;;;5011183;28;19956;-90
2023/03/10 10:03:51;;;;;;;;;;;11.60;62.50;;;;;;5011134;28;19944;-91
2023/03/10 10:06:27;;;;;;;;;;;11.60;62.50;;;;;;5011452;28;19953;-90
2023/03/10 10:08:55;;;;;;;;;;;11.70;62.60;;;;;;4994042;28;19936;-90
2023/03/10 10:11:23;;;;;;;;;;;11.70;62.60;;;;;;4993749;28;20369;-92
2023/03/10 10:13:50;;;;;;;;;;;11.70;62.60;;;;;;4993505;28;19968;-91
2023/03/10 10:16:21;;;;;;;;;;;11.70;62.70;;;;;;4993592;28;20060;-90
2023/03/10 10:19:07;;;;;;;;;;;11.70;62.80;;;;;;4993170;28;20048;-90
2023/03/10 10:21:37;;;;;;;;;;;11.70;62.90;;;;;;4985817;28;19914;-91
2023/03/10 10:24:02;;;;;;;;;;;11.70;63.10;;;;;;4993883;28;20341;-91
2023/03/10 10:26:28;;;;;;;;;;;11.80;63.20;;;;;;5011069;28;19917;-90
2023/03/10 10:29:05;;;;;;;;;;;11.80;63.00;;;;;;4992806;28;20360;-92
2023/03/10 10:31:32;;;;;;;;;;;11.70;62.90;;;;;;4998573;28;19921;-90
2023/03/10 10:34:05;;;;;;;;;;;11.70;63.20;;;;;;4981455;28;19952;-90
2023/03/10 10:36:32;;;;;;;;;;;11.80;63.00;;;;;;5001650;28;19967;-90
2023/03/10 10:38:58;;;;;;;;;;;11.80;63.20;;;;;;5001484;28;19913;-89
2023/03/10 10:41:25;;;;;;;;;;;11.90;63.30;;;;;;4999970;28;19933;-90
2023/03/10 10:43:52;;;;;;;;;;;11.90;63.30;;;;;;4999187;28;19937;-90
2023/03/10 10:46:24;;;;;;;;;;;12.00;63.50;;;;;;4984021;28;20288;-90
2023/03/10 10:48:58;;;;;;;;;;;12.10;63.30;;;;;;5000974;28;19949;-91
2023/03/10 10:51:28;;;;;;;;;;;12.10;63.20;;;;;;4988491;28;19920;-92
2023/03/10 10:54:20;;;;;;;;;;;12.10;63.30;;;;;;4993268;28;19940;-90
2023/03/10 10:56:53;;;;;;;;;;;12.20;63.60;;;;;;4991161;28;20424;-88
2023/03/10 10:59:20;;;;;;;;;;;12.30;63.90;;;;;;4992560;28;20407;-89
2023/03/10 11:02:00;;;;;;;;;;;12.40;64.00;;;;;;4993040;28;19920;-89
2023/03/10 11:04:27;;;;;;;;;;;12.50;63.80;;;;;;4993073;28;20261;-92
2023/03/10 11:07:09;;;;;;;;;;;12.50;63.60;;;;;;4992730;28;19996;-90
2023/03/10 11:09:35;;;;;;;;;;;12.60;63.50;;;;;;4992853;28;19918;-89
2023/03/10 11:12:20;;;;;;;;;;;12.60;63.10;;;;;;4992476;28;19925;-91
2023/03/10 11:14:51;;;;;;;;;;;12.60;63.50;;;;;;4992371;28;19917;-88
2023/03/10 11:17:17;;;;;;;;;;;12.70;63.40;;;;;;4992545;28;19917;-89
2023/03/10 11:19:48;;;;;;;;;;;12.70;63.20;;;;;;4992362;28;20308;-92
2023/03/10 11:22:23;;;;;;;;;;;12.60;63.00;;;;;;5010507;28;19960;-93
2023/03/10 11:25:01;;;;;;;;;;;12.50;62.90;;;;;;4992982;28;19913;-89
2023/03/10 11:27:45;;;;;;;;;;;12.40;62.60;;;;;;5010700;28;19914;-90
2023/03/10 11:30:13;;;;;;;;;;;12.40;62.90;;;;;;4993322;28;19921;-89
2023/03/10 11:32:58;;;;;;;;;;;12.30;63.10;;;;;;4995745;28;19968;-89
2023/03/10 11:35:30;;;;;;;;;;;12.30;62.70;;;;;;5014225;28;19918;-92
2023/03/10 11:38:15;;;;;;;;;;;12.20;62.80;;;;;;5014328;28;20302;-90
2023/03/10 11:40:43;;;;;;;;;;;12.20;62.70;;;;;;4996715;28;19917;-92
2023/03/10 11:43:30;;;;;;;;;;;12.10;62.90;;;;;;5014116;28;19959;-91
2023/03/10 11:45:57;;;;;;;;;;;12.20;63.20;;;;;;4996584;28;19913;-90
2023/03/10 11:48:32;;;;;;;;;;;12.30;63.60;;;;;;4996079;28;19921;-87
2023/03/10 11:50:59;;;;;;;;;;;12.40;63.40;;;;;;4996205;28;19914;-88
2023/03/10 11:53:30;;;;;;;;;;;12.40;63.40;;;;;;5013791;28;20568;-88
2023/03/10 11:55:58;;;;;;;;;;;12.40;62.80;;;;;;5013659;28;19937;-89
2023/03/10 11:58:26;;;;;;;;;;;12.30;62.30;;;;;;4996106;28;19918;-90
2023/03/10 12:00:53;;;;;;;;;;;12.30;62.20;;;;;;5013347;28;19975;-88
2023/03/10 12:03:18;;;;;;;;;;;12.30;62.50;;;;;;5013647;28;19918;-90
2023/03/10 12:05:56;;;;;;;;;;;12.30;62.70;;;;;;4996139;28;20470;-90
2023/03/10 12:08:23;;;;;;;;;;;12.30;62.60;;;;;;5013658;28;19957;-92
2023/03/10 12:10:48;;;;;;;;;;;12.20;62.30;;;;;;5013840;28;19914;-91
2023/03/10 12:13:20;;;;;;;;;;;12.10;62.30;;;;;;5013791;28;19920;-91
2023/03/10 12:15:46;;;;;;;;;;;12.00;62.60;;;;;;4995768;28;19972;-89
2023/03/10 12:18:12;;;;;;;;;;;12.00;62.50;;;;;;4995276;28;19914;-91
2023/03/10 12:20:37;;;;;;;;;;;11.90;62.50;;;;;;4995525;28;20008;-89
2023/03/10 12:23:09;;;;;;;;;;;11.90;62.80;;;;;;4995380;28;19924;-88
2023/03/10 12:25:37;;;;;;;;;;;11.90;62.80;;;;;;4995440;28;20325;-89
2023/03/10 12:28:14;;;;;;;;;;;11.90;63.00;;;;;;4995672;28;20416;-89
2023/03/10 12:30:56;;;;;;;;;;;12.00;62.90;;;;;;5013145;28;20481;-90
2023/03/10 12:33:36;;;;;;;;;;;11.90;63.10;;;;;;5013415;28;19918;-89
2023/03/10 12:36:10;;;;;;;;;;;12.00;63.50;;;;;;4995597;28;19926;-91
2023/03/10 12:38:38;;;;;;;;;;;12.00;63.30;;;;;;4995405;28;19917;-87
2023/03/10 12:41:04;;;;;;;;;;;12.00;63.20;;;;;;4995588;28;19932;-91
2023/03/10 12:43:42;;;;;;;;;;;12.10;62.90;;;;;;4995042;28;19910;-91
2023/03/10 12:46:14;;;;;;;;;;;12.10;63.00;;;;;;5012749;28;19964;-91
2023/03/10 12:48:43;;;;;;;;;;;12.20;62.80;;;;;;4995263;28;19915;-91
2023/03/10 12:51:11;;;;;;;;;;;12.20;62.80;;;;;;5012764;28;20021;-91
2023/03/10 12:53:57;;;;;;;;;;;12.20;62.60;;;;;;4994945;28;19909;-90
2023/03/10 12:56:32;;;;;;;;;;;12.20;62.70;;;;;;4994359;28;19979;-89
2023/03/10 12:59:11;;;;;;;;;;;12.30;62.90;;;;;;5012984;28;19910;-89
2023/03/10 13:01:40;;;;;;;;;;;12.40;63.20;;;;;;4995132;28;20020;-92
2023/03/10 13:04:07;;;;;;;;;;;12.50;63.00;;;;;;4994979;28;19940;-91
2023/03/10 13:06:35;;;;;;;;;;;12.60;62.80;;;;;;5012778;28;19914;-90
2023/03/10 13:09:16;;;;;;;;;;;12.70;62.60;;;;;;5012758;28;20028;-90
2023/03/10 13:11:55;;;;;;;;;;;12.70;62.20;;;;;;4994832;28;20033;-89
2023/03/10 13:14:22;;;;;;;;;;;12.70;62.20;;;;;;5012984;28;20482;-90
2023/03/10 13:16:55;;;;;;;;;;;12.80;62.30;;;;;;4993968;28;19932;-89
2023/03/10 13:19:22;;;;;;;;;;;12.80;62.20;;;;;;4994592;28;19920;-90
2023/03/10 13:21:49;;;;;;;;;;;12.80;62.20;;;;;;5012037;28;19924;-90
2023/03/10 13:24:20;;;;;;;;;;;12.80;62.20;;;;;;5012574;28;19921;-88
2023/03/10 13:26:46;;;;;;;;;;;12.80;62.30;;;;;;4994734;28;19959;-90
2023/03/10 13:29:16;;;;;;;;;;;12.80;62.30;;;;;;5012322;28;20000;-90
2023/03/10 13:31:50;;;;;;;;;;;12.70;62.00;;;;;;4994291;28;19913;-90
2023/03/10 13:34:19;;;;;;;;;;;12.70;62.00;;;;;;5012120;28;20063;-89
2023/03/10 13:36:45;;;;;;;;;;;12.60;62.10;;;;;;5011817;28;19936;-91
2023/03/10 13:39:15;;;;;;;;;;;12.60;62.20;;;;;;4994155;28;19914;-91
2023/03/10 13:41:43;;;;;;;;;;;12.70;62.50;;;;;;5011555;28;19917;-89
2023/03/10 13:44:38;;;;;;;;;;;12.80;62.90;;;;;;5011921;28;19914;-88
2023/03/10 13:47:12;;;;;;;;;;;13.00;63.20;;;;;;4985150;28;19924;-89
2023/03/10 13:49:37;;;;;;;;;;;13.30;63.60;;;;;;4993951;28;19914;-92
2023/03/10 13:52:11;;;;;;;;;;;13.60;63.20;;;;;;4993515;28;19914;-90
2023/03/10 13:54:37;;;;;;;;;;;13.80;63.10;;;;;;5010828;28;20327;-89
2023/03/10 13:57:12;;;;;;;;;;;14.00;63.00;;;;;;5011306;28;20294;-87
2023/03/10 13:59:38;;;;;;;;;;;14.20;62.70;;;;;;5011105;28;19913;-90
2023/03/10 14:02:04;;;;;;;;;;;14.20;62.40;;;;;;4993287;28;19983;-89
2023/03/10 14:04:41;;;;;;;;;;;14.20;61.90;;;;;;4994472;28;19917;-89
2023/03/10 14:07:11;;;;;;;;;;;14.00;61.70;;;;;;5011810;28;19924;-89
2023/03/10 14:09:37;;;;;;;;;;;13.90;61.80;;;;;;4993193;28;19917;-89
2023/03/10 14:12:03;;;;;;;;;;;13.80;61.70;;;;;;4993805;28;20291;-90
2023/03/10 14:14:30;;;;;;;;;;;13.70;61.80;;;;;;4977487;28;19924;-90
2023/03/10 14:16:57;;;;;;;;;;;13.60;61.90;;;;;;4993108;28;20012;-90
2023/03/10 14:19:38;;;;;;;;;;;13.60;61.90;;;;;;5011409;28;19918;-89
2023/03/10 14:22:20;;;;;;;;;;;13.60;61.80;;;;;;4993378;28;19924;-89
2023/03/10 14:24:46;;;;;;;;;;;13.50;61.90;;;;;;4993457;28;19918;-89
2023/03/10 14:27:12;;;;;;;;;;;13.40;62.20;;;;;;5011293;28;19960;-88